sensor_id;sensor_type;location;lat;lon;timestamp;P1;durP1;ratioP1;P2;durP2;ratioP2
16770;SDS011;8503;52.472;13.344;2022-08-19T00:01:24;8.50;;;6.50;;
16770;SDS011;8503;52.472;13.344;2022-08-19T00:03:09;12.32;;;7.50;;
16770;SDS011;8503;52.472;13.344;2022-08-19T00:04:51;9.30;;;6.72;;
16770;SDS011;8503;52.472;13.344;2022-08-19T00:06:34;8.15;;;6.57;;
16770;SDS011;8503;52.472;13.344;2022-08-19T00:08:17;10.13;;;7.68;;
16770;SDS011;8503;52.472;13.344;2022-08-19T00:09:59;8.38;;;6.55;;
16770;SDS011;8503;52.472;13.344;2022-08-19T00:11:42;10.48;;;7.38;;
16770;SDS011;8503;52.472;13.344;2022-08-19T00:13:27;8.65;;;7.28;;
16770;SDS011;8503;52.472;13.344;2022-08-19T00:15:11;9.50;;;7.22;;
16770;SDS011;8503;52.472;13.344;2022-08-19T00:16:54;8.25;;;7.03;;
16770;SDS011;8503;52.472;13.344;2022-08-19T00:18:37;10.68;;;7.50;;
16770;SDS011;8503;52.472;13.344;2022-08-19T00:20:20;9.88;;;7.85;;
16770;SDS011;8503;52.472;13.344;2022-08-19T00:22:02;9.93;;;7.25;;
16770;SDS011;8503;52.472;13.344;2022-08-19T00:23:45;9.77;;;6.88;;
16770;SDS011;8503;52.472;13.344;2022-08-19T00:25:27;9.13;;;7.05;;
16770;SDS011;8503;52.472;13.344;2022-08-19T00:27:09;11.73;;;7.78;;
16770;SDS011;8503;52.472;13.344;2022-08-19T00:29:08;10.90;;;7.78;;
16770;SDS011;8503;52.472;13.344;2022-08-19T00:30:51;9.38;;;7.60;;
16770;SDS011;8503;52.472;13.344;2022-08-19T00:32:33;8.85;;;7.72;;
16770;SDS011;8503;52.472;13.344;2022-08-19T00:34:16;8.38;;;7.05;;
16770;SDS011;8503;52.472;13.344;2022-08-19T00:35:58;10.55;;;7.03;;
16770;SDS011;8503;52.472;13.344;2022-08-19T00:37:40;10.10;;;7.28;;
16770;SDS011;8503;52.472;13.344;2022-08-19T00:39:23;10.60;;;8.00;;
16770;SDS011;8503;52.472;13.344;2022-08-19T00:41:06;9.38;;;7.20;;
16770;SDS011;8503;52.472;13.344;2022-08-19T00:42:48;11.57;;;7.38;;
16770;SDS011;8503;52.472;13.344;2022-08-19T00:44:34;9.55;;;8.45;;
16770;SDS011;8503;52.472;13.344;2022-08-19T00:46:17;8.98;;;7.05;;
16770;SDS011;8503;52.472;13.344;2022-08-19T00:48:00;11.25;;;7.68;;
16770;SDS011;8503;52.472;13.344;2022-08-19T00:49:54;9.50;;;6.75;;
16770;SDS011;8503;52.472;13.344;2022-08-19T00:51:38;9.93;;;7.38;;
16770;SDS011;8503;52.472;13.344;2022-08-19T00:53:20;9.63;;;7.10;;
16770;SDS011;8503;52.472;13.344;2022-08-19T00:55:05;9.95;;;7.53;;
16770;SDS011;8503;52.472;13.344;2022-08-19T00:56:50;11.77;;;7.60;;
16770;SDS011;8503;52.472;13.344;2022-08-19T00:58:34;9.07;;;6.93;;
16770;SDS011;8503;52.472;13.344;2022-08-19T01:00:18;9.25;;;7.47;;
16770;SDS011;8503;52.472;13.344;2022-08-19T01:02:01;8.75;;;7.30;;
16770;SDS011;8503;52.472;13.344;2022-08-19T01:03:44;9.05;;;7.13;;
16770;SDS011;8503;52.472;13.344;2022-08-19T01:05:37;8.80;;;7.15;;
16770;SDS011;8503;52.472;13.344;2022-08-19T01:07:22;10.40;;;7.40;;
16770;SDS011;8503;52.472;13.344;2022-08-19T01:09:04;9.85;;;7.53;;
16770;SDS011;8503;52.472;13.344;2022-08-19T01:10:48;9.55;;;7.22;;
16770;SDS011;8503;52.472;13.344;2022-08-19T01:12:31;10.30;;;7.55;;
16770;SDS011;8503;52.472;13.344;2022-08-19T01:14:14;9.13;;;7.38;;
16770;SDS011;8503;52.472;13.344;2022-08-19T01:15:59;10.25;;;7.80;;
16770;SDS011;8503;52.472;13.344;2022-08-19T01:17:43;13.13;;;8.40;;
16770;SDS011;8503;52.472;13.344;2022-08-19T01:19:27;11.02;;;8.45;;
16770;SDS011;8503;52.472;13.344;2022-08-19T01:21:25;9.15;;;7.90;;
16770;SDS011;8503;52.472;13.344;2022-08-19T01:23:12;12.85;;;8.25;;
16770;SDS011;8503;52.472;13.344;2022-08-19T01:24:54;13.35;;;7.53;;
16770;SDS011;8503;52.472;13.344;2022-08-19T01:26:38;9.05;;;7.97;;
16770;SDS011;8503;52.472;13.344;2022-08-19T01:28:23;11.55;;;8.23;;
16770;SDS011;8503;52.472;13.344;2022-08-19T01:30:19;11.02;;;8.68;;
16770;SDS011;8503;52.472;13.344;2022-08-19T01:32:03;10.65;;;8.55;;
16770;SDS011;8503;52.472;13.344;2022-08-19T01:34:06;13.98;;;9.48;;
16770;SDS011;8503;52.472;13.344;2022-08-19T01:35:49;13.85;;;10.25;;
16770;SDS011;8503;52.472;13.344;2022-08-19T01:37:41;12.20;;;9.07;;
16770;SDS011;8503;52.472;13.344;2022-08-19T01:39:26;10.90;;;8.73;;
16770;SDS011;8503;52.472;13.344;2022-08-19T01:41:09;13.60;;;8.95;;
16770;SDS011;8503;52.472;13.344;2022-08-19T01:42:52;12.10;;;8.38;;
16770;SDS011;8503;52.472;13.344;2022-08-19T01:44:34;9.85;;;8.30;;
16770;SDS011;8503;52.472;13.344;2022-08-19T01:46:16;11.32;;;8.55;;
16770;SDS011;8503;52.472;13.344;2022-08-19T01:48:03;12.50;;;9.95;;
16770;SDS011;8503;52.472;13.344;2022-08-19T01:49:45;10.85;;;8.02;;
16770;SDS011;8503;52.472;13.344;2022-08-19T01:51:28;13.43;;;9.20;;
16770;SDS011;8503;52.472;13.344;2022-08-19T01:53:18;12.10;;;8.55;;
16770;SDS011;8503;52.472;13.344;2022-08-19T01:55:08;13.30;;;8.55;;
16770;SDS011;8503;52.472;13.344;2022-08-19T01:56:52;10.73;;;8.32;;
16770;SDS011;8503;52.472;13.344;2022-08-19T01:58:38;9.50;;;8.52;;
16770;SDS011;8503;52.472;13.344;2022-08-19T02:00:22;10.50;;;9.07;;
16770;SDS011;8503;52.472;13.344;2022-08-19T02:02:06;12.43;;;8.75;;
16770;SDS011;8503;52.472;13.344;2022-08-19T02:03:48;11.98;;;7.93;;
16770;SDS011;8503;52.472;13.344;2022-08-19T02:05:35;10.70;;;8.23;;
16770;SDS011;8503;52.472;13.344;2022-08-19T02:07:18;12.50;;;8.40;;
16770;SDS011;8503;52.472;13.344;2022-08-19T02:09:02;12.48;;;8.73;;
16770;SDS011;8503;52.472;13.344;2022-08-19T02:10:49;14.25;;;8.68;;
16770;SDS011;8503;52.472;13.344;2022-08-19T02:12:31;11.82;;;8.93;;
16770;SDS011;8503;52.472;13.344;2022-08-19T02:14:16;13.95;;;8.27;;
16770;SDS011;8503;52.472;13.344;2022-08-19T02:15:58;13.27;;;9.32;;
16770;SDS011;8503;52.472;13.344;2022-08-19T02:17:43;13.77;;;9.80;;
16770;SDS011;8503;52.472;13.344;2022-08-19T02:19:25;15.38;;;9.65;;
16770;SDS011;8503;52.472;13.344;2022-08-19T02:21:08;13.38;;;9.18;;
16770;SDS011;8503;52.472;13.344;2022-08-19T02:22:50;12.75;;;9.32;;
16770;SDS011;8503;52.472;13.344;2022-08-19T02:24:33;10.52;;;8.38;;
16770;SDS011;8503;52.472;13.344;2022-08-19T02:26:16;13.52;;;9.07;;
16770;SDS011;8503;52.472;13.344;2022-08-19T02:27:59;13.38;;;9.05;;
16770;SDS011;8503;52.472;13.344;2022-08-19T02:29:41;12.50;;;8.77;;
16770;SDS011;8503;52.472;13.344;2022-08-19T02:31:24;9.95;;;7.75;;
16770;SDS011;8503;52.472;13.344;2022-08-19T02:33:07;9.77;;;8.02;;
16770;SDS011;8503;52.472;13.344;2022-08-19T02:34:50;11.30;;;7.82;;
16770;SDS011;8503;52.472;13.344;2022-08-19T02:36:32;14.63;;;9.05;;
16770;SDS011;8503;52.472;13.344;2022-08-19T02:38:14;11.18;;;8.07;;
16770;SDS011;8503;52.472;13.344;2022-08-19T02:40:05;12.23;;;7.68;;
16770;SDS011;8503;52.472;13.344;2022-08-19T02:41:52;14.85;;;8.52;;
16770;SDS011;8503;52.472;13.344;2022-08-19T02:43:35;11.02;;;7.15;;
16770;SDS011;8503;52.472;13.344;2022-08-19T02:45:23;10.70;;;7.45;;
16770;SDS011;8503;52.472;13.344;2022-08-19T02:47:05;9.48;;;7.43;;
16770;SDS011;8503;52.472;13.344;2022-08-19T02:48:47;10.32;;;8.45;;
16770;SDS011;8503;52.472;13.344;2022-08-19T02:50:30;11.65;;;8.98;;
16770;SDS011;8503;52.472;13.344;2022-08-19T02:52:12;9.05;;;7.55;;
16770;SDS011;8503;52.472;13.344;2022-08-19T02:53:54;11.32;;;8.10;;
16770;SDS011;8503;52.472;13.344;2022-08-19T02:55:41;10.98;;;7.95;;
16770;SDS011;8503;52.472;13.344;2022-08-19T02:57:26;10.13;;;8.35;;
16770;SDS011;8503;52.472;13.344;2022-08-19T02:59:08;10.82;;;8.32;;
16770;SDS011;8503;52.472;13.344;2022-08-19T03:00:52;9.27;;;7.95;;
16770;SDS011;8503;52.472;13.344;2022-08-19T03:02:35;9.32;;;7.60;;
16770;SDS011;8503;52.472;13.344;2022-08-19T03:04:17;13.38;;;8.15;;
16770;SDS011;8503;52.472;13.344;2022-08-19T03:06:03;11.70;;;7.75;;
16770;SDS011;8503;52.472;13.344;2022-08-19T03:07:46;12.23;;;8.65;;
16770;SDS011;8503;52.472;13.344;2022-08-19T03:09:28;9.48;;;8.00;;
16770;SDS011;8503;52.472;13.344;2022-08-19T03:11:14;10.68;;;8.27;;
16770;SDS011;8503;52.472;13.344;2022-08-19T03:12:58;10.10;;;8.30;;
16770;SDS011;8503;52.472;13.344;2022-08-19T03:14:43;11.55;;;8.63;;
16770;SDS011;8503;52.472;13.344;2022-08-19T03:16:28;12.60;;;8.13;;
16770;SDS011;8503;52.472;13.344;2022-08-19T03:18:12;11.52;;;8.50;;
16770;SDS011;8503;52.472;13.344;2022-08-19T03:19:57;11.55;;;8.30;;
16770;SDS011;8503;52.472;13.344;2022-08-19T03:21:40;10.38;;;8.02;;
16770;SDS011;8503;52.472;13.344;2022-08-19T03:23:24;11.18;;;9.32;;
16770;SDS011;8503;52.472;13.344;2022-08-19T03:25:07;12.43;;;8.57;;
16770;SDS011;8503;52.472;13.344;2022-08-19T03:26:51;9.65;;;8.15;;
16770;SDS011;8503;52.472;13.344;2022-08-19T03:28:38;12.95;;;8.82;;
16770;SDS011;8503;52.472;13.344;2022-08-19T03:30:26;12.27;;;8.82;;
16770;SDS011;8503;52.472;13.344;2022-08-19T03:32:08;10.02;;;8.25;;
16770;SDS011;8503;52.472;13.344;2022-08-19T03:34:13;12.63;;;8.95;;
16770;SDS011;8503;52.472;13.344;2022-08-19T03:36:04;15.02;;;8.38;;
16770;SDS011;8503;52.472;13.344;2022-08-19T03:37:48;10.95;;;8.25;;
16770;SDS011;8503;52.472;13.344;2022-08-19T03:39:30;13.30;;;8.85;;
16770;SDS011;8503;52.472;13.344;2022-08-19T03:41:14;10.63;;;8.93;;
16770;SDS011;8503;52.472;13.344;2022-08-19T03:42:56;12.25;;;9.52;;
16770;SDS011;8503;52.472;13.344;2022-08-19T03:44:39;11.40;;;9.75;;
16770;SDS011;8503;52.472;13.344;2022-08-19T03:46:24;11.05;;;9.55;;
16770;SDS011;8503;52.472;13.344;2022-08-19T03:48:11;13.88;;;9.48;;
16770;SDS011;8503;52.472;13.344;2022-08-19T03:49:53;13.80;;;10.18;;
16770;SDS011;8503;52.472;13.344;2022-08-19T03:51:37;13.30;;;10.65;;
16770;SDS011;8503;52.472;13.344;2022-08-19T03:53:19;12.48;;;9.80;;
16770;SDS011;8503;52.472;13.344;2022-08-19T03:55:02;14.80;;;9.50;;
16770;SDS011;8503;52.472;13.344;2022-08-19T03:56:44;14.15;;;10.13;;
16770;SDS011;8503;52.472;13.344;2022-08-19T03:58:27;12.65;;;10.07;;
16770;SDS011;8503;52.472;13.344;2022-08-19T04:00:12;12.30;;;8.68;;
16770;SDS011;8503;52.472;13.344;2022-08-19T04:01:56;16.63;;;10.77;;
16770;SDS011;8503;52.472;13.344;2022-08-19T04:03:40;11.77;;;9.73;;
16770;SDS011;8503;52.472;13.344;2022-08-19T04:05:22;11.60;;;9.55;;
16770;SDS011;8503;52.472;13.344;2022-08-19T04:07:06;12.23;;;9.90;;
16770;SDS011;8503;52.472;13.344;2022-08-19T04:08:50;13.55;;;9.40;;
16770;SDS011;8503;52.472;13.344;2022-08-19T04:10:35;19.10;;;9.98;;
16770;SDS011;8503;52.472;13.344;2022-08-19T04:12:17;15.05;;;10.23;;
16770;SDS011;8503;52.472;13.344;2022-08-19T04:14:00;13.18;;;9.70;;
16770;SDS011;8503;52.472;13.344;2022-08-19T04:15:45;12.77;;;9.45;;
16770;SDS011;8503;52.472;13.344;2022-08-19T04:17:27;13.15;;;10.10;;
16770;SDS011;8503;52.472;13.344;2022-08-19T04:19:10;12.43;;;10.35;;
16770;SDS011;8503;52.472;13.344;2022-08-19T04:20:53;12.27;;;9.63;;
16770;SDS011;8503;52.472;13.344;2022-08-19T04:22:35;11.60;;;9.48;;
16770;SDS011;8503;52.472;13.344;2022-08-19T04:24:18;13.32;;;9.52;;
16770;SDS011;8503;52.472;13.344;2022-08-19T04:26:01;13.32;;;10.15;;
16770;SDS011;8503;52.472;13.344;2022-08-19T04:27:44;13.43;;;9.75;;
16770;SDS011;8503;52.472;13.344;2022-08-19T04:29:26;11.32;;;10.02;;
16770;SDS011;8503;52.472;13.344;2022-08-19T04:31:13;14.45;;;9.52;;
16770;SDS011;8503;52.472;13.344;2022-08-19T04:32:57;13.68;;;9.45;;
16770;SDS011;8503;52.472;13.344;2022-08-19T04:34:40;13.18;;;9.27;;
16770;SDS011;8503;52.472;13.344;2022-08-19T04:36:43;13.75;;;8.95;;
16770;SDS011;8503;52.472;13.344;2022-08-19T04:38:25;10.98;;;9.27;;
16770;SDS011;8503;52.472;13.344;2022-08-19T04:40:08;14.10;;;10.45;;
16770;SDS011;8503;52.472;13.344;2022-08-19T04:42:08;13.02;;;9.55;;
16770;SDS011;8503;52.472;13.344;2022-08-19T04:44:10;10.40;;;8.48;;
16770;SDS011;8503;52.472;13.344;2022-08-19T04:45:53;12.82;;;9.30;;
16770;SDS011;8503;52.472;13.344;2022-08-19T04:47:42;12.10;;;8.80;;
16770;SDS011;8503;52.472;13.344;2022-08-19T04:49:37;9.48;;;8.48;;
16770;SDS011;8503;52.472;13.344;2022-08-19T04:51:19;12.13;;;8.65;;
16770;SDS011;8503;52.472;13.344;2022-08-19T04:53:01;10.52;;;8.93;;
16770;SDS011;8503;52.472;13.344;2022-08-19T04:54:45;12.15;;;8.85;;
16770;SDS011;8503;52.472;13.344;2022-08-19T04:56:27;12.65;;;8.57;;
16770;SDS011;8503;52.472;13.344;2022-08-19T04:58:09;12.05;;;8.18;;
16770;SDS011;8503;52.472;13.344;2022-08-19T04:59:53;12.63;;;7.95;;
16770;SDS011;8503;52.472;13.344;2022-08-19T05:01:36;11.32;;;9.27;;
16770;SDS011;8503;52.472;13.344;2022-08-19T05:03:20;11.70;;;8.20;;
16770;SDS011;8503;52.472;13.344;2022-08-19T05:05:07;10.77;;;8.13;;
16770;SDS011;8503;52.472;13.344;2022-08-19T05:06:50;10.93;;;8.45;;
16770;SDS011;8503;52.472;13.344;2022-08-19T05:08:40;11.20;;;8.05;;
16770;SDS011;8503;52.472;13.344;2022-08-19T05:10:23;13.65;;;8.60;;
16770;SDS011;8503;52.472;13.344;2022-08-19T05:12:06;11.65;;;9.38;;
16770;SDS011;8503;52.472;13.344;2022-08-19T05:13:49;10.35;;;8.13;;
16770;SDS011;8503;52.472;13.344;2022-08-19T05:15:31;10.73;;;8.98;;
16770;SDS011;8503;52.472;13.344;2022-08-19T05:17:14;12.75;;;7.95;;
16770;SDS011;8503;52.472;13.344;2022-08-19T05:19:18;11.48;;;8.02;;
16770;SDS011;8503;52.472;13.344;2022-08-19T05:21:18;10.43;;;8.23;;
16770;SDS011;8503;52.472;13.344;2022-08-19T05:23:19;9.63;;;7.63;;
16770;SDS011;8503;52.472;13.344;2022-08-19T05:25:03;13.18;;;8.52;;
16770;SDS011;8503;52.472;13.344;2022-08-19T05:26:54;9.65;;;8.27;;
16770;SDS011;8503;52.472;13.344;2022-08-19T05:28:37;11.32;;;8.57;;
16770;SDS011;8503;52.472;13.344;2022-08-19T05:30:19;11.57;;;8.93;;
16770;SDS011;8503;52.472;13.344;2022-08-19T05:32:20;9.40;;;8.05;;
16770;SDS011;8503;52.472;13.344;2022-08-19T05:34:03;11.65;;;8.18;;
16770;SDS011;8503;52.472;13.344;2022-08-19T05:35:58;8.63;;;7.47;;
16770;SDS011;8503;52.472;13.344;2022-08-19T05:37:42;8.80;;;7.53;;
16770;SDS011;8503;52.472;13.344;2022-08-19T05:39:25;8.23;;;7.40;;
16770;SDS011;8503;52.472;13.344;2022-08-19T05:41:08;7.82;;;7.03;;
16770;SDS011;8503;52.472;13.344;2022-08-19T05:42:51;10.35;;;8.52;;
16770;SDS011;8503;52.472;13.344;2022-08-19T05:44:35;9.35;;;7.88;;
16770;SDS011;8503;52.472;13.344;2022-08-19T05:46:19;15.20;;;7.53;;
16770;SDS011;8503;52.472;13.344;2022-08-19T05:48:07;9.57;;;7.25;;
16770;SDS011;8503;52.472;13.344;2022-08-19T05:49:50;9.43;;;7.20;;
16770;SDS011;8503;52.472;13.344;2022-08-19T05:51:34;12.27;;;7.45;;
16770;SDS011;8503;52.472;13.344;2022-08-19T05:53:18;14.70;;;7.35;;
16770;SDS011;8503;52.472;13.344;2022-08-19T05:55:00;8.80;;;7.28;;
16770;SDS011;8503;52.472;13.344;2022-08-19T05:56:42;10.20;;;7.18;;
16770;SDS011;8503;52.472;13.344;2022-08-19T05:58:27;9.80;;;7.60;;
16770;SDS011;8503;52.472;13.344;2022-08-19T06:00:10;10.52;;;7.43;;
16770;SDS011;8503;52.472;13.344;2022-08-19T06:01:53;9.23;;;7.20;;
16770;SDS011;8503;52.472;13.344;2022-08-19T06:03:36;14.20;;;7.40;;
16770;SDS011;8503;52.472;13.344;2022-08-19T06:05:19;10.43;;;7.63;;
16770;SDS011;8503;52.472;13.344;2022-08-19T06:07:03;9.43;;;7.32;;
16770;SDS011;8503;52.472;13.344;2022-08-19T06:08:52;11.00;;;8.10;;
16770;SDS011;8503;52.472;13.344;2022-08-19T06:10:34;11.80;;;7.75;;
16770;SDS011;8503;52.472;13.344;2022-08-19T06:12:16;13.00;;;8.27;;
16770;SDS011;8503;52.472;13.344;2022-08-19T06:14:00;11.73;;;7.88;;
16770;SDS011;8503;52.472;13.344;2022-08-19T06:15:43;8.38;;;7.53;;
16770;SDS011;8503;52.472;13.344;2022-08-19T06:17:26;10.07;;;7.75;;
16770;SDS011;8503;52.472;13.344;2022-08-19T06:19:12;8.93;;;7.93;;
16770;SDS011;8503;52.472;13.344;2022-08-19T06:20:56;8.85;;;7.90;;
16770;SDS011;8503;52.472;13.344;2022-08-19T06:22:40;9.45;;;7.90;;
16770;SDS011;8503;52.472;13.344;2022-08-19T06:24:25;9.50;;;7.75;;
16770;SDS011;8503;52.472;13.344;2022-08-19T06:26:11;15.18;;;8.13;;
16770;SDS011;8503;52.472;13.344;2022-08-19T06:27:53;11.73;;;7.95;;
16770;SDS011;8503;52.472;13.344;2022-08-19T06:29:54;9.77;;;7.45;;
16770;SDS011;8503;52.472;13.344;2022-08-19T06:31:36;10.82;;;8.50;;
16770;SDS011;8503;52.472;13.344;2022-08-19T06:33:21;12.30;;;8.45;;
16770;SDS011;8503;52.472;13.344;2022-08-19T06:35:03;12.68;;;7.20;;
16770;SDS011;8503;52.472;13.344;2022-08-19T06:36:47;16.40;;;7.97;;
16770;SDS011;8503;52.472;13.344;2022-08-19T06:38:32;9.80;;;8.80;;
16770;SDS011;8503;52.472;13.344;2022-08-19T06:40:14;12.50;;;8.65;;
16770;SDS011;8503;52.472;13.344;2022-08-19T06:41:58;10.55;;;8.48;;
16770;SDS011;8503;52.472;13.344;2022-08-19T06:43:42;10.80;;;8.50;;
16770;SDS011;8503;52.472;13.344;2022-08-19T06:45:26;11.68;;;8.70;;
16770;SDS011;8503;52.472;13.344;2022-08-19T06:47:15;11.23;;;8.57;;
16770;SDS011;8503;52.472;13.344;2022-08-19T06:49:07;11.13;;;7.82;;
16770;SDS011;8503;52.472;13.344;2022-08-19T06:50:53;9.98;;;8.00;;
16770;SDS011;8503;52.472;13.344;2022-08-19T06:52:35;14.93;;;9.15;;
16770;SDS011;8503;52.472;13.344;2022-08-19T06:54:21;10.30;;;9.00;;
16770;SDS011;8503;52.472;13.344;2022-08-19T06:56:09;12.85;;;9.10;;
16770;SDS011;8503;52.472;13.344;2022-08-19T06:57:52;11.38;;;8.27;;
16770;SDS011;8503;52.472;13.344;2022-08-19T06:59:34;10.60;;;8.88;;
16770;SDS011;8503;52.472;13.344;2022-08-19T07:01:16;13.82;;;8.45;;
16770;SDS011;8503;52.472;13.344;2022-08-19T07:03:01;11.60;;;8.40;;
16770;SDS011;8503;52.472;13.344;2022-08-19T07:04:47;12.57;;;9.65;;
16770;SDS011;8503;52.472;13.344;2022-08-19T07:06:31;10.95;;;8.50;;
16770;SDS011;8503;52.472;13.344;2022-08-19T07:08:23;11.88;;;10.10;;
16770;SDS011;8503;52.472;13.344;2022-08-19T07:10:10;15.43;;;10.25;;
16770;SDS011;8503;52.472;13.344;2022-08-19T07:11:53;10.57;;;9.13;;
16770;SDS011;8503;52.472;13.344;2022-08-19T07:13:35;9.82;;;8.52;;
16770;SDS011;8503;52.472;13.344;2022-08-19T07:15:18;13.05;;;9.75;;
16770;SDS011;8503;52.472;13.344;2022-08-19T07:17:03;12.40;;;9.68;;
16770;SDS011;8503;52.472;13.344;2022-08-19T07:18:46;11.48;;;9.70;;
16770;SDS011;8503;52.472;13.344;2022-08-19T07:20:28;12.85;;;9.88;;
16770;SDS011;8503;52.472;13.344;2022-08-19T07:22:13;10.23;;;9.13;;
16770;SDS011;8503;52.472;13.344;2022-08-19T07:23:56;12.68;;;9.85;;
16770;SDS011;8503;52.472;13.344;2022-08-19T07:25:46;11.88;;;10.20;;
16770;SDS011;8503;52.472;13.344;2022-08-19T07:27:32;12.82;;;9.93;;
16770;SDS011;8503;52.472;13.344;2022-08-19T07:29:14;12.70;;;10.55;;
16770;SDS011;8503;52.472;13.344;2022-08-19T07:30:57;11.88;;;9.45;;
16770;SDS011;8503;52.472;13.344;2022-08-19T07:32:41;15.02;;;10.32;;
16770;SDS011;8503;52.472;13.344;2022-08-19T07:34:23;10.57;;;9.48;;
16770;SDS011;8503;52.472;13.344;2022-08-19T07:36:06;12.52;;;10.10;;
16770;SDS011;8503;52.472;13.344;2022-08-19T07:37:50;12.52;;;9.75;;
16770;SDS011;8503;52.472;13.344;2022-08-19T07:39:34;12.48;;;9.63;;
16770;SDS011;8503;52.472;13.344;2022-08-19T07:41:18;14.68;;;10.35;;
16770;SDS011;8503;52.472;13.344;2022-08-19T07:43:03;14.35;;;9.73;;
16770;SDS011;8503;52.472;13.344;2022-08-19T07:44:47;13.43;;;9.75;;
16770;SDS011;8503;52.472;13.344;2022-08-19T07:46:30;14.63;;;10.88;;
16770;SDS011;8503;52.472;13.344;2022-08-19T07:48:12;11.68;;;10.43;;
16770;SDS011;8503;52.472;13.344;2022-08-19T07:49:54;15.80;;;10.45;;
16770;SDS011;8503;52.472;13.344;2022-08-19T07:51:37;20.00;;;10.80;;
16770;SDS011;8503;52.472;13.344;2022-08-19T07:53:20;13.23;;;10.77;;
16770;SDS011;8503;52.472;13.344;2022-08-19T07:55:02;15.32;;;10.32;;
16770;SDS011;8503;52.472;13.344;2022-08-19T07:57:06;11.73;;;10.25;;
16770;SDS011;8503;52.472;13.344;2022-08-19T07:58:50;16.90;;;11.05;;
16770;SDS011;8503;52.472;13.344;2022-08-19T08:00:37;11.75;;;10.55;;
16770;SDS011;8503;52.472;13.344;2022-08-19T08:02:20;12.90;;;10.73;;
16770;SDS011;8503;52.472;13.344;2022-08-19T08:04:02;15.55;;;10.95;;
16770;SDS011;8503;52.472;13.344;2022-08-19T08:06:02;14.20;;;10.57;;
16770;SDS011;8503;52.472;13.344;2022-08-19T08:08:01;13.40;;;10.73;;
16770;SDS011;8503;52.472;13.344;2022-08-19T08:10:22;14.52;;;10.48;;
16770;SDS011;8503;52.472;13.344;2022-08-19T08:12:05;16.25;;;10.73;;
16770;SDS011;8503;52.472;13.344;2022-08-19T08:14:11;14.88;;;10.63;;
16770;SDS011;8503;52.472;13.344;2022-08-19T08:16:13;14.68;;;10.80;;
16770;SDS011;8503;52.472;13.344;2022-08-19T08:17:55;13.93;;;10.18;;
16770;SDS011;8503;52.472;13.344;2022-08-19T08:19:39;14.20;;;10.40;;
16770;SDS011;8503;52.472;13.344;2022-08-19T08:21:22;15.07;;;10.48;;
16770;SDS011;8503;52.472;13.344;2022-08-19T08:23:04;15.05;;;10.85;;
16770;SDS011;8503;52.472;13.344;2022-08-19T08:25:07;12.60;;;11.05;;
16770;SDS011;8503;52.472;13.344;2022-08-19T08:26:53;11.43;;;10.13;;
16770;SDS011;8503;52.472;13.344;2022-08-19T08:28:38;13.75;;;10.70;;
16770;SDS011;8503;52.472;13.344;2022-08-19T08:30:27;18.80;;;11.00;;
16770;SDS011;8503;52.472;13.344;2022-08-19T08:32:13;13.55;;;11.27;;
16770;SDS011;8503;52.472;13.344;2022-08-19T08:33:55;14.57;;;11.15;;
16770;SDS011;8503;52.472;13.344;2022-08-19T08:35:37;17.52;;;11.55;;
16770;SDS011;8503;52.472;13.344;2022-08-19T08:37:22;13.68;;;10.85;;
16770;SDS011;8503;52.472;13.344;2022-08-19T08:39:04;20.35;;;11.07;;
16770;SDS011;8503;52.472;13.344;2022-08-19T08:40:48;14.05;;;11.60;;
16770;SDS011;8503;52.472;13.344;2022-08-19T08:42:34;13.98;;;12.25;;
16770;SDS011;8503;52.472;13.344;2022-08-19T08:44:20;16.25;;;12.45;;
16770;SDS011;8503;52.472;13.344;2022-08-19T08:46:05;14.88;;;11.48;;
16770;SDS011;8503;52.472;13.344;2022-08-19T08:47:51;12.85;;;10.85;;
16770;SDS011;8503;52.472;13.344;2022-08-19T08:49:39;12.50;;;11.20;;
16770;SDS011;8503;52.472;13.344;2022-08-19T08:51:24;13.52;;;10.25;;
16770;SDS011;8503;52.472;13.344;2022-08-19T08:53:14;13.88;;;11.77;;
16770;SDS011;8503;52.472;13.344;2022-08-19T08:55:12;14.02;;;12.05;;
16770;SDS011;8503;52.472;13.344;2022-08-19T08:56:59;17.02;;;12.77;;
16770;SDS011;8503;52.472;13.344;2022-08-19T08:58:44;15.63;;;11.70;;
16770;SDS011;8503;52.472;13.344;2022-08-19T09:00:37;14.00;;;12.05;;
16770;SDS011;8503;52.472;13.344;2022-08-19T09:02:20;16.00;;;12.68;;
16770;SDS011;8503;52.472;13.344;2022-08-19T09:04:02;14.00;;;12.43;;
16770;SDS011;8503;52.472;13.344;2022-08-19T09:05:48;18.83;;;12.45;;
16770;SDS011;8503;52.472;13.344;2022-08-19T09:07:39;16.75;;;12.57;;
16770;SDS011;8503;52.472;13.344;2022-08-19T09:09:30;15.75;;;12.38;;
16770;SDS011;8503;52.472;13.344;2022-08-19T09:11:17;15.55;;;11.77;;
16770;SDS011;8503;52.472;13.344;2022-08-19T09:13:24;14.57;;;11.02;;
16770;SDS011;8503;52.472;13.344;2022-08-19T09:15:25;16.38;;;11.40;;
16770;SDS011;8503;52.472;13.344;2022-08-19T09:17:17;13.48;;;12.02;;
16770;SDS011;8503;52.472;13.344;2022-08-19T09:19:08;12.75;;;10.98;;
16770;SDS011;8503;52.472;13.344;2022-08-19T09:20:50;14.55;;;12.02;;
16770;SDS011;8503;52.472;13.344;2022-08-19T09:22:33;12.80;;;11.25;;
16770;SDS011;8503;52.472;13.344;2022-08-19T09:24:15;12.50;;;10.73;;
16770;SDS011;8503;52.472;13.344;2022-08-19T09:25:57;13.00;;;10.35;;
16770;SDS011;8503;52.472;13.344;2022-08-19T09:27:40;12.68;;;10.00;;
16770;SDS011;8503;52.472;13.344;2022-08-19T09:29:22;12.95;;;10.93;;
16770;SDS011;8503;52.472;13.344;2022-08-19T09:31:04;15.68;;;10.68;;
16770;SDS011;8503;52.472;13.344;2022-08-19T09:32:48;14.82;;;10.70;;
16770;SDS011;8503;52.472;13.344;2022-08-19T09:34:32;16.48;;;10.40;;
16770;SDS011;8503;52.472;13.344;2022-08-19T09:36:17;12.90;;;10.20;;
16770;SDS011;8503;52.472;13.344;2022-08-19T09:38:14;13.48;;;10.15;;
16770;SDS011;8503;52.472;13.344;2022-08-19T09:39:56;14.38;;;9.57;;
16770;SDS011;8503;52.472;13.344;2022-08-19T09:41:38;12.88;;;10.30;;
16770;SDS011;8503;52.472;13.344;2022-08-19T09:43:26;14.32;;;10.00;;
16770;SDS011;8503;52.472;13.344;2022-08-19T09:45:21;11.35;;;10.13;;
16770;SDS011;8503;52.472;13.344;2022-08-19T09:47:03;13.45;;;10.75;;
16770;SDS011;8503;52.472;13.344;2022-08-19T09:48:48;11.65;;;10.05;;
16770;SDS011;8503;52.472;13.344;2022-08-19T09:50:30;11.02;;;9.70;;
16770;SDS011;8503;52.472;13.344;2022-08-19T09:52:13;13.15;;;9.95;;
16770;SDS011;8503;52.472;13.344;2022-08-19T09:53:58;13.05;;;9.93;;
16770;SDS011;8503;52.472;13.344;2022-08-19T09:55:44;15.07;;;11.35;;
16770;SDS011;8503;52.472;13.344;2022-08-19T09:57:26;12.73;;;10.30;;
16770;SDS011;8503;52.472;13.344;2022-08-19T09:59:08;12.52;;;10.48;;
16770;SDS011;8503;52.472;13.344;2022-08-19T10:00:51;16.08;;;10.13;;
16770;SDS011;8503;52.472;13.344;2022-08-19T10:02:34;13.55;;;10.52;;
16770;SDS011;8503;52.472;13.344;2022-08-19T10:04:19;14.35;;;11.05;;
16770;SDS011;8503;52.472;13.344;2022-08-19T10:06:04;14.18;;;10.77;;
16770;SDS011;8503;52.472;13.344;2022-08-19T10:07:56;16.67;;;11.82;;
16770;SDS011;8503;52.472;13.344;2022-08-19T10:09:43;13.32;;;9.65;;
16770;SDS011;8503;52.472;13.344;2022-08-19T10:11:25;11.38;;;9.63;;
16770;SDS011;8503;52.472;13.344;2022-08-19T10:13:19;13.43;;;11.38;;
16770;SDS011;8503;52.472;13.344;2022-08-19T10:15:05;12.80;;;10.57;;
16770;SDS011;8503;52.472;13.344;2022-08-19T10:16:48;12.32;;;10.73;;
16770;SDS011;8503;52.472;13.344;2022-08-19T10:18:32;12.80;;;10.45;;
16770;SDS011;8503;52.472;13.344;2022-08-19T10:20:16;11.85;;;10.25;;
16770;SDS011;8503;52.472;13.344;2022-08-19T10:21:59;13.40;;;10.77;;
16770;SDS011;8503;52.472;13.344;2022-08-19T10:23:49;12.70;;;9.98;;
16770;SDS011;8503;52.472;13.344;2022-08-19T10:25:34;12.98;;;10.50;;